createdAt,value
2022-08-07T00:02:35.502Z,32.51
2022-08-07T00:04:04.867Z,32.49
2022-08-07T00:06:34.160Z,32.47
2022-08-07T00:09:16.428Z,32.45
2022-08-07T00:11:54.269Z,32.45
2022-08-07T00:14:25.233Z,32.39
2022-08-07T00:16:53.418Z,32.44
2022-08-07T00:19:21.755Z,32.32
2022-08-07T00:21:55.311Z,32.34
2022-08-07T00:24:24.881Z,32.31
2022-08-07T00:27:06.388Z,32.33
2022-08-07T00:29:37.070Z,32.34
2022-08-07T00:32:06.857Z,32.34
2022-08-07T00:34:35.612Z,32.35
2022-08-07T00:37:05.128Z,32.34
2022-08-07T00:39:34.049Z,32.34
2022-08-07T00:42:05.127Z,32.29
2022-08-07T00:44:35.149Z,32.30
2022-08-07T00:47:15.795Z,32.26
2022-08-07T00:50:19.369Z,32.28
2022-08-07T00:52:47.378Z,32.26
2022-08-07T00:55:17.428Z,32.22
2022-08-07T00:57:55.850Z,32.24
2022-08-07T01:00:24.854Z,32.19
2022-08-07T01:02:53.472Z,32.20
2022-08-07T01:05:21.535Z,32.19
2022-08-07T01:07:52.314Z,32.19
2022-08-07T01:10:21.048Z,32.19
2022-08-07T01:12:53.865Z,32.19
2022-08-07T01:15:35.839Z,32.18
2022-08-07T01:18:16.828Z,32.15
2022-08-07T01:20:59.746Z,32.12
2022-08-07T01:23:35.406Z,32.09
2022-08-07T01:26:11.976Z,32.12
2022-08-07T01:28:46.038Z,32.08
2022-08-07T01:31:18.237Z,32.03
2022-08-07T01:33:55.105Z,32.01
2022-08-07T01:36:33.910Z,32.03
2022-08-07T01:39:10.562Z,31.96
2022-08-07T01:42:01.669Z,31.98
2022-08-07T01:44:32.800Z,32.00
2022-08-07T01:48:16.652Z,32.00
2022-08-07T01:49:53.587Z,31.98
2022-08-07T01:52:26.583Z,31.96
2022-08-07T01:54:56.518Z,31.80
2022-08-07T01:58:00.989Z,31.83
2022-08-07T02:00:20.103Z,31.77
2022-08-07T02:03:18.434Z,31.60
2022-08-07T02:06:08.826Z,31.62
2022-08-07T02:08:54.228Z,31.63
2022-08-07T02:11:30.805Z,31.59
2022-08-07T02:14:35.721Z,31.56
2022-08-07T02:17:06.485Z,31.55
2022-08-07T02:20:04.850Z,31.56
2022-08-07T02:22:25.875Z,31.55
2022-08-07T02:24:56.342Z,31.51
2022-08-07T02:27:25.692Z,31.50
2022-08-07T02:29:57.898Z,31.52
2022-08-07T02:32:36.444Z,31.48
2022-08-07T02:35:11.300Z,31.44
2022-08-07T02:37:43.825Z,31.42
2022-08-07T02:40:30.832Z,31.38
2022-08-07T02:43:07.674Z,31.20
2022-08-07T02:45:58.311Z,31.18
2022-08-07T02:48:30.199Z,31.21
2022-08-07T02:51:04.125Z,31.22
2022-08-07T02:53:38.294Z,31.14
2022-08-07T02:56:17.653Z,31.18
2022-08-07T02:58:55.321Z,31.10
2022-08-07T03:01:35.499Z,31.10
2022-08-07T03:04:12.595Z,31.16
2022-08-07T03:06:48.266Z,31.15
2022-08-07T03:09:41.825Z,31.19
2022-08-07T03:12:16.206Z,31.08
2022-08-07T03:14:52.920Z,31.13
2022-08-07T03:17:22.216Z,31.09
2022-08-07T03:19:55.543Z,31.19
2022-08-07T03:22:33.133Z,31.20
2022-08-07T03:25:03.859Z,31.19
2022-08-07T03:28:08.873Z,31.22
2022-08-07T03:30:33.891Z,31.22
2022-08-07T03:33:04.239Z,31.27
2022-08-07T03:35:43.561Z,31.22
2022-08-07T03:38:13.454Z,31.16
2022-08-07T03:40:44.256Z,31.14
2022-08-07T03:43:20.475Z,31.15
2022-08-07T03:45:56.442Z,31.09
2022-08-07T03:48:29.783Z,31.00
2022-08-07T03:50:59.625Z,31.04
2022-08-07T03:54:06.023Z,31.04
2022-08-07T03:56:33.221Z,31.00
2022-08-07T03:59:13.488Z,31.05
2022-08-07T04:01:47.812Z,31.06
2022-08-07T04:04:20.741Z,31.08
2022-08-07T04:06:53.983Z,31.05
2022-08-07T04:09:45.324Z,31.04
2022-08-07T04:12:27.520Z,31.02
2022-08-07T04:15:00.226Z,30.94
2022-08-07T04:18:30.838Z,30.94
2022-08-07T04:20:19.826Z,30.92
2022-08-07T04:22:53.656Z,30.94
2022-08-07T04:25:39.126Z,30.93
2022-08-07T04:28:13.436Z,30.89
2022-08-07T04:30:55.134Z,30.87
2022-08-07T04:33:28.693Z,30.82
2022-08-07T04:35:57.443Z,30.83
2022-08-07T04:38:28.664Z,30.86
2022-08-07T04:40:57.822Z,30.85
2022-08-07T04:44:10.712Z,30.82
2022-08-07T04:46:53.957Z,30.80
2022-08-07T04:49:57.549Z,30.77
2022-08-07T04:52:52.854Z,30.77
2022-08-07T04:58:09.810Z,30.65
2022-08-07T04:58:48.821Z,30.65
2022-08-07T05:01:39.774Z,30.64
2022-08-07T05:04:27.188Z,30.70
2022-08-07T05:07:20.973Z,30.70
2022-08-07T05:10:33.370Z,30.67
2022-08-07T05:14:55.988Z,30.57
2022-08-07T05:16:09.256Z,30.59
2022-08-07T05:18:44.574Z,30.58
2022-08-07T05:21:18.585Z,30.66
2022-08-07T05:24:11.835Z,30.69
2022-08-07T05:26:41.406Z,30.70
2022-08-07T05:29:19.462Z,30.65
2022-08-07T05:31:52.834Z,30.71
2022-08-07T05:34:27.887Z,30.73
2022-08-07T05:36:57.014Z,30.71
2022-08-07T05:40:06.696Z,30.77
2022-08-07T05:42:34.550Z,30.73
2022-08-07T05:45:26.100Z,30.72
2022-08-07T05:48:03.027Z,30.77
2022-08-07T05:50:43.197Z,30.82
2022-08-07T05:54:13.523Z,30.78
2022-08-07T05:56:05.937Z,30.80
2022-08-07T05:58:39.549Z,30.80
2022-08-07T06:01:12.575Z,30.81
2022-08-07T06:03:57.043Z,30.85
2022-08-07T06:06:32.570Z,30.86
2022-08-07T06:09:05.316Z,30.92
2022-08-07T06:11:37.613Z,30.96
2022-08-07T06:14:12.719Z,30.98
2022-08-07T06:16:56.378Z,30.99
2022-08-07T06:19:51.983Z,31.03
2022-08-07T06:22:23.867Z,31.08
2022-08-07T06:25:10.268Z,31.11
2022-08-07T06:28:00.636Z,31.12
2022-08-07T06:30:35.273Z,31.11
2022-08-07T06:33:16.249Z,31.13
2022-08-07T06:36:12.428Z,31.13
2022-08-07T06:38:39.016Z,31.18
2022-08-07T06:41:47.633Z,31.18
2022-08-07T06:44:15.100Z,31.26
2022-08-07T06:46:53.763Z,31.27
2022-08-07T06:49:35.409Z,31.33
2022-08-07T06:52:31.325Z,31.34
2022-08-07T06:55:32.816Z,31.37
2022-08-07T06:58:09.623Z,31.41
2022-08-07T07:00:53.606Z,31.50
2022-08-07T07:03:26.375Z,31.61
2022-08-07T07:06:11.086Z,31.65
2022-08-07T07:08:39.847Z,31.70
2022-08-07T07:12:09.066Z,31.76
2022-08-07T07:14:04.433Z,31.84
2022-08-07T07:16:50.092Z,31.83
2022-08-07T07:19:57.775Z,31.89
2022-08-07T07:22:36.321Z,31.93
2022-08-07T07:26:31.280Z,31.98
2022-08-07T07:28:07.754Z,31.98
2022-08-07T07:31:21.624Z,31.99
2022-08-07T07:33:59.270Z,32.07
2022-08-07T07:36:32.706Z,32.11
2022-08-07T07:39:04.587Z,32.19
2022-08-07T07:42:01.972Z,32.24
2022-08-07T07:44:26.534Z,32.36
2022-08-07T07:47:04.366Z,32.41
2022-08-07T07:50:34.370Z,32.44
2022-08-07T07:52:35.240Z,32.61
2022-08-07T07:55:07.203Z,32.71
2022-08-07T07:57:51.795Z,32.76
2022-08-07T08:00:31.475Z,32.82
2022-08-07T08:03:16.934Z,32.85
2022-08-07T08:06:03.398Z,33.05
2022-08-07T08:08:36.909Z,33.05
2022-08-07T08:11:16.410Z,33.14
2022-08-07T08:13:58.188Z,32.92
2022-08-07T08:16:42.084Z,33.17
2022-08-07T08:20:19.071Z,33.27
2022-08-07T08:22:33.533Z,33.53
2022-08-07T08:25:27.041Z,33.51
2022-08-07T08:28:24.055Z,33.60
2022-08-07T08:31:16.061Z,34.00
2022-08-07T08:33:49.564Z,34.11
2022-08-07T08:36:29.660Z,33.99
2022-08-07T08:39:02.251Z,34.55
2022-08-07T08:41:59.159Z,34.62
2022-08-07T08:44:59.258Z,34.76
2022-08-07T08:47:55.619Z,34.84
2022-08-07T08:50:39.349Z,34.79
2022-08-07T08:53:32.943Z,35.21
2022-08-07T08:56:09.705Z,35.58
2022-08-07T08:58:54.586Z,35.73
2022-08-07T09:01:40.098Z,35.90
2022-08-07T09:04:30.134Z,36.03
2022-08-07T09:07:14.777Z,36.37
2022-08-07T09:09:57.430Z,36.37
2022-08-07T09:12:53.808Z,36.42
2022-08-07T09:16:22.033Z,36.69
2022-08-07T09:19:00.864Z,37.00
2022-08-07T09:22:22.706Z,37.19
2022-08-07T09:24:56.081Z,37.25
2022-08-07T09:27:59.848Z,37.74
2022-08-07T09:30:54.866Z,37.69
2022-08-07T09:33:57.845Z,38.00
2022-08-07T09:36:36.994Z,38.05
2022-08-07T09:39:55.249Z,37.71
2022-08-07T09:42:42.875Z,37.54
2022-08-07T09:47:23.433Z,37.62
2022-08-07T09:48:25.192Z,38.05
2022-08-07T09:52:10.856Z,38.06
2022-08-07T09:54:11.566Z,38.02
2022-08-07T09:57:21.689Z,37.05
2022-08-07T10:00:02.432Z,37.31
2022-08-07T10:02:57.446Z,37.89
2022-08-07T10:06:00.183Z,37.72
2022-08-07T10:08:57.893Z,37.76
2022-08-07T10:12:01.518Z,37.88
2022-08-07T10:14:55.170Z,37.82
2022-08-07T10:17:26.788Z,37.57
2022-08-07T10:20:31.727Z,37.50
2022-08-07T10:24:06.658Z,37.27
2022-08-07T10:26:42.664Z,37.31
2022-08-07T10:29:45.547Z,37.65
2022-08-07T10:32:53.766Z,37.63
2022-08-07T10:35:53.643Z,37.67
2022-08-07T10:38:48.807Z,37.34
2022-08-07T10:41:47.108Z,37.48
2022-08-07T10:44:37.693Z,37.78
2022-08-07T10:47:50.612Z,38.32
2022-08-07T10:50:25.895Z,38.71
2022-08-07T10:53:12.279Z,38.68
2022-08-07T10:56:31.310Z,38.27
2022-08-07T10:59:25.097Z,38.54
2022-08-07T11:02:33.645Z,38.46
2022-08-07T11:05:10.879Z,38.01
2022-08-07T11:08:00.543Z,37.56
2022-08-07T11:10:28.995Z,38.27
2022-08-07T11:13:04.447Z,37.21
2022-08-07T11:15:38.639Z,37.70
2022-08-07T11:18:22.138Z,35.92
2022-08-07T11:21:17.588Z,36.79
2022-08-07T11:23:59.675Z,37.29
2022-08-07T11:26:34.252Z,37.18
2022-08-07T11:29:12.944Z,37.51
2022-08-07T11:32:10.740Z,38.02
2022-08-07T11:34:49.566Z,37.57
2022-08-07T11:37:57.738Z,37.66
2022-08-07T11:41:04.020Z,36.91
2022-08-07T11:43:54.722Z,37.57
2022-08-07T11:46:50.401Z,37.62
2022-08-07T11:50:18.827Z,37.98
2022-08-07T11:52:52.822Z,38.05
2022-08-07T11:56:09.082Z,38.36
2022-08-07T11:58:41.334Z,37.95
2022-08-07T12:01:59.183Z,37.91
2022-08-07T12:04:46.961Z,37.93
2022-08-07T12:07:38.643Z,37.85
2022-08-07T12:10:29.580Z,38.13
2022-08-07T12:13:37.288Z,38.24
2022-08-07T12:16:30.093Z,38.34
2022-08-07T12:19:14.613Z,37.99
2022-08-07T12:22:39.310Z,38.05
2022-08-07T12:26:22.419Z,37.73
2022-08-07T12:28:30.868Z,38.09
2022-08-07T12:31:09.373Z,37.64
2022-08-07T12:34:01.389Z,37.85
2022-08-07T12:36:33.102Z,38.02
2022-08-07T12:39:38.807Z,37.91
2022-08-07T12:41:55.609Z,38.11
2022-08-07T12:44:33.111Z,37.60
2022-08-07T12:47:11.704Z,38.13
2022-08-07T12:50:05.203Z,38.20
2022-08-07T12:53:05.162Z,37.78
2022-08-07T12:56:23.343Z,37.62
2022-08-07T12:58:57.941Z,38.30
2022-08-07T13:01:27.919Z,38.31
2022-08-07T13:04:34.379Z,38.04
2022-08-07T13:08:14.055Z,38.15
2022-08-07T13:10:37.825Z,37.64
2022-08-07T13:13:48.443Z,37.84
2022-08-07T13:16:18.879Z,37.40
2022-08-07T13:19:45.970Z,36.94
2022-08-07T13:22:32.860Z,37.55
2022-08-07T13:25:15.209Z,38.07
2022-08-07T13:28:12.706Z,38.17
2022-08-07T13:31:02.004Z,37.15
2022-08-07T13:34:34.291Z,37.59
2022-08-07T13:36:44.971Z,37.73
2022-08-07T13:40:32.913Z,37.77
2022-08-07T13:42:29.235Z,38.03
2022-08-07T13:45:21.000Z,37.94
2022-08-07T13:48:06.922Z,37.58
2022-08-07T13:50:45.052Z,37.85
2022-08-07T13:53:59.749Z,37.75
2022-08-07T13:56:35.281Z,37.16
2022-08-07T13:59:24.768Z,37.48
2022-08-07T14:02:19.662Z,37.16
2022-08-07T14:05:02.032Z,37.12
2022-08-07T14:07:33.585Z,36.69
2022-08-07T14:10:21.762Z,36.60
2022-08-07T14:12:56.657Z,36.35
2022-08-07T14:15:36.213Z,36.23
2022-08-07T14:18:29.961Z,35.51
2022-08-07T14:22:41.208Z,36.25
2022-08-07T14:24:19.885Z,36.59
2022-08-07T14:27:00.622Z,36.49
2022-08-07T14:30:05.561Z,35.44
2022-08-07T14:32:46.238Z,36.42
2022-08-07T14:38:26.047Z,36.79
2022-08-07T14:40:59.680Z,37.00
2022-08-07T14:43:58.699Z,36.96
2022-08-07T14:46:31.149Z,37.26
2022-08-07T14:52:04.678Z,36.73
2022-08-07T14:54:42.186Z,36.33
2022-08-07T14:57:19.778Z,36.23
2022-08-07T15:00:05.037Z,36.53
2022-08-07T15:02:35.227Z,36.66
2022-08-07T15:05:20.626Z,36.70
2022-08-07T15:07:53.440Z,36.99
2022-08-07T15:10:29.670Z,36.49
2022-08-07T15:13:06.216Z,36.52
2022-08-07T15:15:43.188Z,36.70
2022-08-07T15:18:28.400Z,36.65
2022-08-07T15:26:57.890Z,36.64
2022-08-07T15:30:08.584Z,36.16
2022-08-07T15:32:38.987Z,36.08
2022-08-07T15:38:29.999Z,36.12
2022-08-07T15:41:00.422Z,36.25
2022-08-07T15:43:55.771Z,36.11
2022-08-07T15:46:37.606Z,36.17
2022-08-07T15:49:15.389Z,36.19
2022-08-07T15:54:41.393Z,35.91
2022-08-07T15:57:40.211Z,35.82
2022-08-07T16:00:31.274Z,35.99
2022-08-07T16:03:01.881Z,35.89
2022-08-07T16:05:33.622Z,35.87
2022-08-07T16:08:30.621Z,35.92
2022-08-07T16:11:26.798Z,35.64
2022-08-07T16:14:07.519Z,35.71
2022-08-07T16:17:15.988Z,35.72
2022-08-07T16:20:05.648Z,35.76
2022-08-07T16:22:39.029Z,35.78
2022-08-07T16:25:52.493Z,35.71
2022-08-07T16:29:18.730Z,35.71
2022-08-07T16:31:51.868Z,35.74
2022-08-07T16:34:48.560Z,35.76
2022-08-07T16:38:06.537Z,35.74
2022-08-07T16:40:33.323Z,35.68
2022-08-07T16:44:05.604Z,35.62
2022-08-07T16:47:05.653Z,35.44
2022-08-07T16:50:28.167Z,35.33
2022-08-07T16:52:52.348Z,35.35
2022-08-07T16:55:47.127Z,35.35
2022-08-07T16:58:33.692Z,35.48
2022-08-07T17:01:41.385Z,35.43
2022-08-07T17:04:24.461Z,35.48
2022-08-07T17:07:13.540Z,35.46
2022-08-07T17:10:07.426Z,35.38
2022-08-07T17:13:03.461Z,35.42
2022-08-07T17:15:50.726Z,35.41
2022-08-07T17:18:32.623Z,35.44
2022-08-07T17:21:04.203Z,35.41
2022-08-07T17:24:14.193Z,35.41
2022-08-07T17:27:20.008Z,35.32
2022-08-07T17:30:14.010Z,35.33
2022-08-07T17:34:09.613Z,35.40
2022-08-07T17:36:20.285Z,35.33
2022-08-07T17:39:15.262Z,35.35
2022-08-07T17:42:04.955Z,35.31
2022-08-07T17:44:55.000Z,35.32
2022-08-07T17:47:42.878Z,35.21
2022-08-07T17:50:19.131Z,35.09
2022-08-07T17:52:59.609Z,35.07
2022-08-07T17:56:01.026Z,35.02
2022-08-07T17:58:40.496Z,35.06
2022-08-07T18:01:36.302Z,35.06
2022-08-07T18:04:34.494Z,34.97
2022-08-07T18:07:20.521Z,35.04
2022-08-07T18:10:05.881Z,34.92
2022-08-07T18:12:53.193Z,35.02
2022-08-07T18:15:32.979Z,34.89
2022-08-07T18:18:44.695Z,34.91
2022-08-07T18:21:38.365Z,34.92
2022-08-07T18:24:34.320Z,34.94
2022-08-07T18:27:39.216Z,34.87
2022-08-07T18:30:31.043Z,34.81
2022-08-07T18:33:10.388Z,34.84
2022-08-07T18:36:11.053Z,34.56
2022-08-07T18:38:59.168Z,34.30
2022-08-07T18:41:45.660Z,34.00
2022-08-07T18:45:09.230Z,33.72
2022-08-07T18:47:45.310Z,33.94
2022-08-07T18:50:37.998Z,34.12
2022-08-07T18:53:37.024Z,34.13
2022-08-07T18:56:57.826Z,34.21
2022-08-07T18:59:47.609Z,34.25
2022-08-07T19:02:39.477Z,34.31
2022-08-07T19:05:23.446Z,34.14
2022-08-07T19:07:58.160Z,34.32
2022-08-07T19:10:49.868Z,34.30
2022-08-07T19:13:34.273Z,34.27
2022-08-07T19:17:04.479Z,33.64
2022-08-07T19:19:31.800Z,34.06
2022-08-07T19:22:31.368Z,34.06
2022-08-07T19:25:06.897Z,34.09
2022-08-07T19:28:58.534Z,34.18
2022-08-07T19:31:04.153Z,34.20
2022-08-07T19:33:35.060Z,34.17
2022-08-07T19:36:08.720Z,34.16
2022-08-07T19:38:53.133Z,34.16
2022-08-07T19:41:44.489Z,34.18
2022-08-07T19:44:31.530Z,34.11
2022-08-07T19:47:07.446Z,34.01
2022-08-07T19:49:58.402Z,33.97
2022-08-07T19:52:31.265Z,33.75
2022-08-07T19:54:59.837Z,33.43
2022-08-07T19:58:02.107Z,33.44
2022-08-07T20:00:29.330Z,33.46
2022-08-07T20:03:03.649Z,33.47
2022-08-07T20:05:59.768Z,32.85
2022-08-07T20:08:30.255Z,33.18
2022-08-07T20:11:09.605Z,33.26
2022-08-07T20:13:42.014Z,33.43
2022-08-07T20:16:32.081Z,33.37
2022-08-07T20:19:00.903Z,33.26
2022-08-07T20:21:42.284Z,32.97
2022-08-07T20:24:23.276Z,32.90
2022-08-07T20:26:54.561Z,32.91
2022-08-07T20:29:47.751Z,32.80
2022-08-07T20:32:40.434Z,32.80
2022-08-07T20:35:12.865Z,32.49
2022-08-07T20:37:58.277Z,32.69
2022-08-07T20:40:34.721Z,32.75
2022-08-07T20:43:14.551Z,32.88
2022-08-07T20:46:27.060Z,32.82
2022-08-07T20:48:39.045Z,32.73
2022-08-07T20:51:28.888Z,32.65
2022-08-07T20:54:08.644Z,32.72
2022-08-07T20:56:46.127Z,32.75
2022-08-07T21:00:04.316Z,32.76
2022-08-07T21:02:35.255Z,32.65
2022-08-07T21:05:16.534Z,32.60
2022-08-07T21:07:49.915Z,32.51
2022-08-07T21:10:29.523Z,32.60
2022-08-07T21:13:01.124Z,32.52
2022-08-07T21:15:47.844Z,32.36
2022-08-07T21:18:31.980Z,32.28
2022-08-07T21:21:04.960Z,32.32
2022-08-07T21:23:50.672Z,32.31
2022-08-07T21:26:39.513Z,32.17
2022-08-07T21:29:21.936Z,32.16
2022-08-07T21:32:47.866Z,32.03
2022-08-07T21:35:11.458Z,32.11
2022-08-07T21:37:59.197Z,32.13
2022-08-07T21:40:35.866Z,31.99
2022-08-07T21:43:47.405Z,31.95
2022-08-07T21:46:44.850Z,31.94
2022-08-07T21:49:26.844Z,32.03
2022-08-07T21:52:04.339Z,32.03
2022-08-07T21:55:11.227Z,32.06
2022-08-07T21:58:07.117Z,32.11
2022-08-07T22:00:41.047Z,32.10
2022-08-07T22:03:16.489Z,32.08
2022-08-07T22:05:53.426Z,32.12
2022-08-07T22:08:24.769Z,32.10
2022-08-07T22:11:00.572Z,32.05
2022-08-07T22:13:51.900Z,32.03
2022-08-07T22:16:39.458Z,32.02
2022-08-07T22:19:29.648Z,31.92
2022-08-07T22:22:27.523Z,31.98
2022-08-07T22:25:08.386Z,31.92
2022-08-07T22:28:32.047Z,31.90
2022-08-07T22:31:59.265Z,31.87
2022-08-07T22:34:54.842Z,31.76
2022-08-07T22:38:03.581Z,31.67
2022-08-07T22:40:52.935Z,31.70
2022-08-07T22:43:36.532Z,31.62
2022-08-07T22:47:04.154Z,31.50
2022-08-07T22:49:51.691Z,31.52
2022-08-07T22:52:48.337Z,31.51
2022-08-07T22:55:29.975Z,31.48
2022-08-07T22:58:19.711Z,31.52
2022-08-07T23:01:10.085Z,31.51
2022-08-07T23:04:13.367Z,31.42
2022-08-07T23:07:40.185Z,31.43
2022-08-07T23:10:38.039Z,31.41
2022-08-07T23:13:12.025Z,31.39
2022-08-07T23:16:44.660Z,31.44
2022-08-07T23:19:48.254Z,31.52
2022-08-07T23:22:40.637Z,31.46
2022-08-07T23:25:17.375Z,31.48
2022-08-07T23:28:29.618Z,31.56
2022-08-07T23:31:11.200Z,31.48
2022-08-07T23:34:34.649Z,31.44
2022-08-07T23:37:24.543Z,31.49
2022-08-07T23:40:15.165Z,31.45
2022-08-07T23:43:00.541Z,31.46
2022-08-07T23:46:02.605Z,31.48
2022-08-07T23:48:52.290Z,31.38
2022-08-07T23:53:01.583Z,31.34
2022-08-07T23:54:46.539Z,31.32
2022-08-07T23:57:41.272Z,31.16
